TimeMST,TemperatureF,Dew PointF,Humidity,Sea Level PressureIn,VisibilityMPH,Wind Direction,Wind SpeedMPH,Gust SpeedMPH,PrecipitationIn,Events,Conditions,WindDirDegrees,DateUTC
12:53 AM,30.9,21.9,69,30.07,10.0,East,8.1,-,N/A,,Overcast,90,2013-02-08 07:53:00
1:53 AM,33.1,21.9,64,30.02,10.0,East,13.8,-,N/A,,Overcast,100,2013-02-08 08:53:00
2:53 AM,32.0,21.9,66,30.01,10.0,ESE,10.4,-,N/A,,Mostly Cloudy,110,2013-02-08 09:53:00
3:53 AM,35.1,21.0,57,29.99,10.0,East,9.2,-,N/A,,Mostly Cloudy,100,2013-02-08 10:53:00
4:53 AM,36.0,19.9,52,29.96,10.0,East,13.8,-,N/A,,Clear,80,2013-02-08 11:53:00
5:53 AM,36.0,21.0,55,29.96,10.0,East,11.5,-,N/A,,Clear,80,2013-02-08 12:53:00
6:53 AM,35.1,21.0,57,29.99,10.0,East,11.5,-,N/A,,Clear,90,2013-02-08 13:53:00
7:53 AM,37.0,21.9,54,29.99,10.0,East,12.7,-,N/A,,Clear,90,2013-02-08 14:53:00
9:53 AM,46.9,21.9,37,29.91,10.0,ESE,18.4,-,N/A,,Clear,110,2013-02-08 16:53:00
10:53 AM,52.0,21.0,30,29.87,10.0,SSE,18.4,28.8,N/A,,Clear,150,2013-02-08 17:53:00
11:53 AM,53.1,21.0,29,29.83,10.0,SE,18.4,26.5,N/A,,Clear,130,2013-02-08 18:53:00
12:53 PM,55.0,21.0,27,29.76,10.0,SE,23.0,31.1,N/A,,Clear,130,2013-02-08 19:53:00
1:23 PM,57.2,12.2,17,29.77,10.0,South,19.6,34.5,N/A,,Clear,180,2013-02-08 20:23:00
1:53 PM,57.9,12.0,16,29.70,10.0,SSW,21.9,33.4,N/A,,Partly Cloudy,210,2013-02-08 20:53:00
2:53 PM,60.1,3.9,11,29.66,10.0,SSW,21.9,33.4,N/A,,Clear,210,2013-02-08 21:53:00
3:53 PM,57.9,1.0,10,29.63,10.0,SSW,25.3,34.5,N/A,,Clear,200,2013-02-08 22:53:00
4:53 PM,55.9,1.9,11,29.64,10.0,SW,24.2,35.7,N/A,,Clear,220,2013-02-08 23:53:00
5:53 PM,50.0,1.9,14,29.67,10.0,SW,10.4,-,N/A,,Clear,220,2013-02-09 00:53:00
6:53 PM,42.1,3.9,21,29.70,10.0,WSW,4.6,-,N/A,,Clear,240,2013-02-09 01:53:00
7:53 PM,41.0,8.1,26,29.71,10.0,SW,6.9,-,N/A,,Clear,220,2013-02-09 02:53:00
8:53 PM,41.0,9.0,27,29.70,10.0,SW,5.8,-,N/A,,Clear,230,2013-02-09 03:53:00
9:53 PM,37.0,10.9,34,29.71,10.0,Calm,Calm,-,N/A,,Clear,0,2013-02-09 04:53:00
10:53 PM,30.9,10.9,43,29.71,10.0,Calm,Calm,-,N/A,,Clear,0,2013-02-09 05:53:00
11:53 PM,30.9,12.0,46,29.71,10.0,Calm,Calm,-,N/A,,Clear,0,2013-02-09 06:53:00